Time;durP1;ratioP1;P1;durP2;ratioP2;P2;SDS_P1;SDS_P2;PMS_P1;PMS_P2;Temp;Humidity;BMP_temperature;BMP_pressure;BME280_temperature;BME280_humidity;BME280_pressure;Samples;Min_cycle;Max_cycle;Signal;HPM_P1;HPM_P2
2023/06/29 00:00:21;;;;;;;21.27;16.37;;;22.70;25.30;;;;;;5094092;28;20178;-82
2023/06/29 00:02:48;;;;;;;22.60;16.53;;;22.70;25.20;;;;;;5097829;28;20163;-81
2023/06/29 00:05:14;;;;;;;22.27;17.03;;;22.60;27.80;;;;;;5118274;28;20156;-80
2023/06/29 00:07:40;;;;;;;21.67;16.37;;;22.50;28.50;;;;;;5114884;28;20181;-82
2023/06/29 00:10:08;;;;;;;23.17;17.90;;;22.50;29.00;;;;;;5111970;28;20199;-80
2023/06/29 00:12:37;;;;;;;23.17;16.77;;;22.40;31.10;;;;;;5097580;28;20173;-82
2023/06/29 00:15:06;;;;;;;19.40;16.13;;;22.30;33.40;;;;;;5094549;28;20528;-82
2023/06/29 00:17:32;;;;;;;21.17;17.17;;;22.30;37.80;;;;;;5072520;28;20553;-82
2023/06/29 00:20:00;;;;;;;23.57;16.77;;;22.20;38.30;;;;;;5071948;28;20222;-82
2023/06/29 00:22:26;;;;;;;23.53;16.63;;;22.20;42.10;;;;;;5071716;28;21008;-81
2023/06/29 00:24:59;;;;;;;20.67;15.60;;;22.10;47.30;;;;;;5072029;28;20228;-81
2023/06/29 00:27:25;;;;;;;22.00;16.90;;;22.00;48.50;;;;;;5090537;28;20170;-81
2023/06/29 00:29:50;;;;;;;23.47;18.03;;;22.00;46.90;;;;;;5097162;28;20178;-82
2023/06/29 00:32:16;;;;;;;24.07;18.43;;;22.00;46.70;;;;;;5089493;28;20258;-81
2023/06/29 00:34:42;;;;;;;22.43;17.93;;;21.90;51.60;;;;;;5091216;28;20170;-81
2023/06/29 00:37:11;;;;;;;23.07;18.20;;;22.00;53.20;;;;;;5075881;28;20592;-81
2023/06/29 00:39:36;;;;;;;21.00;17.73;;;21.90;55.40;;;;;;5072566;28;20229;-81
2023/06/29 00:42:03;;;;;;;23.47;18.17;;;21.90;56.70;;;;;;5072404;28;20164;-81
2023/06/29 00:44:29;;;;;;;22.57;17.60;;;21.90;58.10;;;;;;5072402;28;20190;-82
2023/06/29 00:46:55;;;;;;;21.00;18.33;;;21.90;59.20;;;;;;5071301;28;20170;-81
2023/06/29 00:49:21;;;;;;;23.73;18.53;;;21.90;55.60;;;;;;5070597;28;20219;-83
2023/06/29 00:51:49;;;;;;;24.30;18.60;;;21.90;57.10;;;;;;5075420;28;20165;-81
2023/06/29 00:54:17;;;;;;;25.83;19.83;;;21.90;56.00;;;;;;5076275;28;20214;-80
2023/06/29 00:56:43;;;;;;;24.27;19.97;;;21.90;53.00;;;;;;5075638;28;20176;-82
2023/06/29 00:59:09;;;;;;;24.23;19.90;;;22.00;46.30;;;;;;5075728;28;20296;-81
2023/06/29 01:01:37;;;;;;;23.47;20.30;;;22.10;39.70;;;;;;5075760;28;20210;-81
2023/06/29 01:04:03;;;;;;;24.13;19.93;;;22.10;36.70;;;;;;5076581;28;20175;-82
2023/06/29 01:06:32;;;;;;;26.83;19.87;;;22.10;37.90;;;;;;5075801;28;20280;-82
2023/06/29 01:09:05;;;;;;;24.40;19.97;;;22.00;36.70;;;;;;5076471;28;20192;-82
2023/06/29 01:11:33;;;;;;;23.33;18.80;;;22.00;36.80;;;;;;5075545;28;20646;-81
2023/06/29 01:14:03;;;;;;;25.60;19.73;;;21.80;39.00;;;;;;5076526;28;20288;-81
2023/06/29 01:16:32;;;;;;;26.20;20.23;;;21.80;36.40;;;;;;5074415;28;20266;-81
2023/06/29 01:19:00;;;;;;;26.30;20.20;;;21.80;37.60;;;;;;5075413;28;20215;-82
2023/06/29 01:21:28;;;;;;;25.80;20.77;;;21.90;37.80;;;;;;5074564;28;20195;-82
2023/06/29 01:23:58;;;;;;;26.07;20.87;;;21.90;38.60;;;;;;5075147;28;20217;-82
2023/06/29 01:26:24;;;;;;;24.93;20.53;;;21.80;39.40;;;;;;5089314;28;20173;-80
2023/06/29 01:28:53;;;;;;;26.43;20.77;;;21.90;36.90;;;;;;5097041;28;20204;-80
2023/06/29 01:31:19;;;;;;;28.43;20.37;;;21.80;37.40;;;;;;5097077;28;20174;-80
2023/06/29 01:33:45;;;;;;;27.13;20.73;;;21.60;41.40;;;;;;5098765;28;20173;-80
2023/06/29 01:36:31;;;;;;;23.43;18.93;;;21.60;44.60;;;;;;5080666;28;20252;-81
2023/06/29 01:39:03;;;;;;;28.73;21.53;;;21.70;42.90;;;;;;5075681;28;20206;-81
2023/06/29 01:41:32;;;;;;;25.53;20.33;;;21.70;39.90;;;;;;5075075;28;20173;-81
2023/06/29 01:44:02;;;;;;;25.63;20.67;;;21.70;40.40;;;;;;5074855;28;20169;-81
2023/06/29 01:46:28;;;;;;;26.03;20.63;;;21.70;43.00;;;;;;5075829;28;20189;-81
2023/06/29 01:48:54;;;;;;;27.00;20.37;;;21.70;42.50;;;;;;5075597;28;20650;-81
2023/06/29 01:51:23;;;;;;;25.10;20.07;;;21.60;44.60;;;;;;5075347;28;20211;-81
2023/06/29 01:53:50;;;;;;;24.63;19.10;;;21.50;50.90;;;;;;5075317;28;20212;-81
2023/06/29 01:56:15;;;;;;;25.77;20.43;;;21.50;50.20;;;;;;5074591;28;20658;-82
2023/06/29 01:58:41;;;;;;;27.07;20.80;;;21.50;50.30;;;;;;5073653;28;20251;-81
2023/06/29 02:01:07;;;;;;;27.30;20.40;;;21.50;52.60;;;;;;5075825;28;20637;-81
2023/06/29 02:03:32;;;;;;;27.40;20.97;;;21.40;55.80;;;;;;5074676;28;20540;-82
2023/06/29 02:05:58;;;;;;;25.63;20.67;;;21.40;54.00;;;;;;5075857;28;20225;-81
2023/06/29 02:08:24;;;;;;;26.87;19.93;;;21.50;51.00;;;;;;5075508;28;20174;-80
2023/06/29 02:10:49;;;;;;;27.40;20.80;;;21.50;52.30;;;;;;5074972;28;20179;-82
2023/06/29 02:13:16;;;;;;;24.80;20.87;;;21.60;51.90;;;;;;5074100;28;20169;-82
2023/06/29 02:15:42;;;;;;;26.43;21.03;;;21.50;53.40;;;;;;5075319;28;20170;-80
2023/06/29 02:18:07;;;;;;;23.60;20.10;;;21.40;51.90;;;;;;5075533;28;20726;-80
2023/06/29 02:20:33;;;;;;;26.23;20.33;;;21.20;56.60;;;;;;5074276;28;20638;-83
2023/06/29 02:22:58;;;;;;;27.30;21.13;;;21.20;59.10;;;;;;5073725;28;20267;-82
2023/06/29 02:25:26;;;;;;;27.70;20.97;;;21.20;62.20;;;;;;5073972;28;20690;-80
2023/06/29 02:27:51;;;;;;;23.60;20.83;;;21.30;58.80;;;;;;5074040;28;20190;-83
2023/06/29 02:30:17;;;;;;;23.77;20.87;;;21.20;60.80;;;;;;5073961;28;20648;-83
2023/06/29 02:32:43;;;;;;;26.93;21.57;;;21.20;60.20;;;;;;5074362;28;20518;-81
2023/06/29 02:35:09;;;;;;;25.20;20.63;;;21.20;59.20;;;;;;5075511;28;20222;-81
2023/06/29 02:37:34;;;;;;;26.63;22.47;;;21.30;57.90;;;;;;5073458;28;20228;-80
2023/06/29 02:40:00;;;;;;;27.43;20.83;;;21.20;62.40;;;;;;5074651;28;20659;-81
2023/06/29 02:42:26;;;;;;;25.87;20.80;;;21.10;64.60;;;;;;5073631;28;20525;-81
2023/06/29 02:44:52;;;;;;;24.53;20.27;;;21.10;64.50;;;;;;5074334;28;20168;-81
2023/06/29 02:47:17;;;;;;;27.20;21.50;;;21.20;57.60;;;;;;5074549;28;20582;-80
2023/06/29 02:49:43;;;;;;;26.67;21.30;;;21.20;55.60;;;;;;5074642;28;20177;-82
2023/06/29 02:52:09;;;;;;;25.23;20.93;;;21.00;55.70;;;;;;5072222;28;20659;-81
2023/06/29 02:54:34;;;;;;;24.80;20.60;;;20.90;61.00;;;;;;5074893;28;20208;-82
2023/06/29 02:57:00;;;;;;;26.63;20.93;;;20.90;61.20;;;;;;5074146;28;20252;-81
2023/06/29 02:59:26;;;;;;;25.37;21.17;;;20.80;61.00;;;;;;5073012;28;20593;-82
2023/06/29 03:01:51;;;;;;;25.40;20.97;;;20.80;61.80;;;;;;5074950;28;20247;-82
2023/06/29 03:04:17;;;;;;;25.53;21.17;;;20.80;59.50;;;;;;5074663;28;20164;-82
2023/06/29 03:06:43;;;;;;;27.53;21.83;;;20.90;57.10;;;;;;5074237;28;20635;-80
2023/06/29 03:09:08;;;;;;;23.70;20.53;;;20.90;57.10;;;;;;5074007;28;20260;-82
2023/06/29 03:11:34;;;;;;;27.70;20.97;;;20.90;57.60;;;;;;5073193;28;20572;-81
2023/06/29 03:14:00;;;;;;;26.20;21.90;;;20.90;59.20;;;;;;5072946;28;20701;-83
2023/06/29 03:16:26;;;;;;;26.20;21.57;;;20.60;62.70;;;;;;5073959;28;20165;-81
2023/06/29 03:18:51;;;;;;;26.50;21.73;;;20.70;64.60;;;;;;5074345;28;20189;-81
2023/06/29 03:21:19;;;;;;;25.50;21.53;;;20.60;66.50;;;;;;5074097;28;20188;-81
2023/06/29 03:23:45;;;;;;;25.43;20.53;;;20.60;68.30;;;;;;5073930;28;20316;-80
2023/06/29 03:26:12;;;;;;;26.40;20.83;;;20.60;64.50;;;;;;5079062;28;20157;-81
2023/06/29 03:28:37;;;;;;;26.07;21.67;;;20.80;60.10;;;;;;5098838;28;20183;-82
2023/06/29 03:31:03;;;;;;;22.97;20.47;;;20.90;55.10;;;;;;5088455;28;20591;-81
2023/06/29 03:33:28;;;;;;;25.80;21.37;;;20.80;57.50;;;;;;5085423;28;20165;-81
2023/06/29 03:35:57;;;;;;;27.00;20.50;;;20.80;59.00;;;;;;5076105;28;20166;-82
2023/06/29 03:38:26;;;;;;;24.33;19.53;;;20.70;59.80;;;;;;5072943;28;20236;-83
2023/06/29 03:40:52;;;;;;;26.40;21.97;;;20.80;58.60;;;;;;5072712;28;20250;-81
2023/06/29 03:43:18;;;;;;;25.30;21.27;;;20.80;56.90;;;;;;5072531;28;20746;-82
2023/06/29 03:45:44;;;;;;;25.93;20.70;;;20.80;54.40;;;;;;5074136;28;20267;-80
2023/06/29 03:48:10;;;;;;;23.43;20.20;;;20.80;52.10;;;;;;5073074;28;20207;-81
2023/06/29 03:50:36;;;;;;;25.50;20.77;;;20.70;56.70;;;;;;5089455;28;20258;-81
2023/06/29 03:53:02;;;;;;;25.50;20.33;;;20.80;55.20;;;;;;5097237;28;20204;-80
2023/06/29 03:55:28;;;;;;;26.30;21.20;;;20.80;55.30;;;;;;5084637;28;20214;-82
2023/06/29 03:57:57;;;;;;;27.87;21.53;;;20.70;55.80;;;;;;5081027;28;20173;-82
2023/06/29 04:00:26;;;;;;;25.77;20.90;;;20.60;59.80;;;;;;5074406;28;20193;-81
2023/06/29 04:03:01;;;;;;;26.37;20.83;;;20.50;61.90;;;;;;5074901;28;20174;-81
2023/06/29 04:05:27;;;;;;;26.90;20.63;;;20.50;61.30;;;;;;5074792;28;20616;-82
2023/06/29 04:07:52;;;;;;;27.53;20.33;;;20.60;60.00;;;;;;5074107;28;20170;-81
2023/06/29 04:10:18;;;;;;;24.83;20.93;;;20.60;62.30;;;;;;5073587;28;20182;-81
2023/06/29 04:12:44;;;;;;;24.70;21.47;;;20.60;63.70;;;;;;5073689;28;20174;-81
2023/06/29 04:15:10;;;;;;;26.90;21.57;;;20.60;61.70;;;;;;5073998;28;20170;-82
2023/06/29 04:17:36;;;;;;;24.20;20.93;;;20.60;61.70;;;;;;5072014;28;20205;-81
2023/06/29 04:20:03;;;;;;;27.40;21.40;;;20.50;64.50;;;;;;5073127;28;20266;-82
2023/06/29 04:22:28;;;;;;;26.40;22.67;;;20.70;60.10;;;;;;5071032;28;20188;-81
2023/06/29 04:24:54;;;;;;;27.33;21.60;;;20.70;59.30;;;;;;5070768;28;20198;-81
2023/06/29 04:27:20;;;;;;;26.93;22.50;;;20.70;60.10;;;;;;5070594;28;20179;-81
2023/06/29 04:29:45;;;;;;;25.73;21.93;;;20.70;61.10;;;;;;5071988;28;20526;-81
2023/06/29 04:32:11;;;;;;;26.50;20.87;;;20.60;59.30;;;;;;5072832;28;20225;-81
2023/06/29 04:34:37;;;;;;;28.17;21.23;;;20.70;59.50;;;;;;5072148;28;20202;-81
2023/06/29 04:37:02;;;;;;;26.30;21.60;;;20.80;56.50;;;;;;5072818;28;20292;-82
2023/06/29 04:39:28;;;;;;;27.37;21.73;;;20.90;52.70;;;;;;5083553;28;20213;-80
2023/06/29 04:42:01;;;;;;;25.87;21.30;;;20.80;54.60;;;;;;5096296;28;20177;-81
2023/06/29 04:44:31;;;;;;;28.50;22.60;;;21.00;50.00;;;;;;5096893;28;20196;-81
2023/06/29 04:46:59;;;;;;;28.37;21.80;;;21.10;49.10;;;;;;5095141;28;20180;-80
2023/06/29 04:49:27;;;;;;;28.23;22.83;;;21.00;48.30;;;;;;5075996;28;20167;-83
2023/06/29 04:51:55;;;;;;;28.17;22.40;;;20.90;50.70;;;;;;5074412;28;20714;-80
2023/06/29 04:54:22;;;;;;;28.93;23.27;;;20.90;49.80;;;;;;5074072;28;20186;-81
2023/06/29 04:56:47;;;;;;;28.77;22.27;;;20.90;50.70;;;;;;5073169;28;20726;-83
2023/06/29 04:59:16;;;;;;;27.80;21.90;;;20.90;50.50;;;;;;5073528;28;20225;-81
2023/06/29 05:01:41;;;;;;;31.20;22.13;;;20.90;49.50;;;;;;5071261;28;20179;-81
2023/06/29 05:04:10;;;;;;;29.47;21.90;;;20.80;51.90;;;;;;5072909;28;20525;-81
2023/06/29 05:06:36;;;;;;;29.97;22.60;;;20.80;50.50;;;;;;5072685;28;20179;-82
2023/06/29 05:09:01;;;;;;;27.20;21.70;;;20.90;46.60;;;;;;5072801;28;20600;-82
2023/06/29 05:11:27;;;;;;;30.70;22.10;;;21.00;43.60;;;;;;5073258;28;20189;-81
2023/06/29 05:13:54;;;;;;;29.10;22.90;;;20.90;47.10;;;;;;5072614;28;20684;-83
2023/06/29 05:16:20;;;;;;;28.73;23.00;;;20.80;46.40;;;;;;5073859;28;20546;-82
2023/06/29 05:18:46;;;;;;;27.83;23.00;;;20.90;47.80;;;;;;5077381;28;20222;-81
2023/06/29 05:21:13;;;;;;;32.47;23.77;;;20.90;46.40;;;;;;5080687;28;20186;-81
2023/06/29 05:23:39;;;;;;;32.43;22.77;;;20.90;46.80;;;;;;5074494;28;20186;-81
2023/06/29 05:26:05;;;;;;;31.13;23.13;;;21.00;45.00;;;;;;5078366;28;20233;-81
2023/06/29 05:28:33;;;;;;;29.87;23.63;;;21.00;44.30;;;;;;5080671;28;20182;-80
2023/06/29 05:31:05;;;;;;;31.23;22.83;;;21.10;40.90;;;;;;5083996;28;20621;-82
2023/06/29 05:33:34;;;;;;;29.67;22.97;;;21.20;38.50;;;;;;5080384;28;20185;-81
2023/06/29 05:36:02;;;;;;;30.83;22.93;;;21.40;36.90;;;;;;5080779;28;20164;-83
2023/06/29 05:38:29;;;;;;;35.07;24.00;;;21.30;36.90;;;;;;5076853;28;20202;-82
2023/06/29 05:40:55;;;;;;;36.63;24.70;;;21.20;36.80;;;;;;5076392;28;20536;-82
2023/06/29 05:43:22;;;;;;;27.60;22.37;;;21.10;39.40;;;;;;5077868;28;20177;-83
2023/06/29 05:45:48;;;;;;;30.53;22.47;;;21.10;39.30;;;;;;5076984;28;20626;-84
2023/06/29 05:48:13;;;;;;;27.93;22.87;;;21.10;38.90;;;;;;5081266;28;20195;-80
2023/06/29 05:50:39;;;;;;;30.57;23.13;;;21.10;40.20;;;;;;5093548;28;20178;-82
2023/06/29 05:53:05;;;;;;;31.90;24.17;;;21.20;38.50;;;;;;5094277;28;20254;-83
2023/06/29 05:55:30;;;;;;;30.40;23.17;;;21.20;39.70;;;;;;5095208;28;20250;-82
2023/06/29 05:57:56;;;;;;;31.20;22.70;;;21.10;40.40;;;;;;5095053;28;20198;-83
2023/06/29 06:00:22;;;;;;;30.87;23.10;;;21.20;41.20;;;;;;5091488;28;20177;-82
2023/06/29 06:02:48;;;;;;;32.67;23.13;;;21.20;36.70;;;;;;5079972;28;20175;-83
2023/06/29 06:05:14;;;;;;;27.17;22.23;;;21.30;32.30;;;;;;5075066;28;20286;-80
2023/06/29 06:07:40;;;;;;;28.03;22.50;;;21.30;30.10;;;;;;5074841;28;20266;-82
2023/06/29 06:10:06;;;;;;;28.13;22.40;;;21.30;32.30;;;;;;5074618;28;20270;-82
2023/06/29 06:12:31;;;;;;;27.97;23.00;;;21.40;30.10;;;;;;5074861;28;20174;-82
2023/06/29 06:14:57;;;;;;;26.67;22.80;;;21.40;29.70;;;;;;5076264;28;20170;-83
2023/06/29 06:17:23;;;;;;;28.53;23.17;;;21.20;33.00;;;;;;5075306;28;20533;-83
2023/06/29 06:19:49;;;;;;;30.10;22.77;;;21.30;31.00;;;;;;5075260;28;20216;-82
2023/06/29 06:22:14;;;;;;;28.60;21.63;;;21.40;29.80;;;;;;5075856;28;20554;-84
2023/06/29 06:24:40;;;;;;;27.77;22.87;;;21.30;30.60;;;;;;5074535;28;20725;-82
2023/06/29 06:27:07;;;;;;;25.77;22.20;;;21.30;31.30;;;;;;5091084;28;20165;-83
2023/06/29 06:29:33;;;;;;;29.27;23.43;;;21.20;34.70;;;;;;5094136;28;20669;-82
2023/06/29 06:31:58;;;;;;;32.07;23.33;;;21.20;34.40;;;;;;5095080;28;20748;-84
2023/06/29 06:34:27;;;;;;;29.77;24.77;;;21.20;37.20;;;;;;5094648;28;20223;-83
2023/06/29 06:36:53;;;;;;;33.90;23.73;;;21.10;37.10;;;;;;5095839;28;20174;-82
2023/06/29 06:39:18;;;;;;;32.43;25.17;;;21.30;31.50;;;;;;5096340;28;20275;-83
2023/06/29 06:41:45;;;;;;;27.03;22.27;;;21.30;33.30;;;;;;5095983;28;20195;-83
2023/06/29 06:44:11;;;;;;;28.63;23.70;;;21.30;34.70;;;;;;5098021;28;20187;-84
2023/06/29 06:46:36;;;;;;;29.40;23.70;;;21.30;37.50;;;;;;5095939;28;20184;-82
2023/06/29 06:49:02;;;;;;;29.20;23.67;;;21.40;34.50;;;;;;5103091;28;20264;-83
2023/06/29 06:51:28;;;;;;;29.30;23.43;;;21.50;29.60;;;;;;5118613;28;20185;-81
2023/06/29 06:53:56;;;;;;;32.63;22.97;;;21.40;29.50;;;;;;5098747;28;20290;-83
2023/06/29 06:56:25;;;;;;;31.60;24.17;;;21.50;27.70;;;;;;5107246;28;20616;-83
2023/06/29 06:58:51;;;;;;;28.50;23.93;;;21.50;28.70;;;;;;5095642;28;20794;-83
2023/06/29 07:01:21;;;;;;;28.27;23.13;;;21.50;31.00;;;;;;5094411;28;20178;-83
2023/06/29 07:03:47;;;;;;;29.03;23.40;;;21.50;31.00;;;;;;5095482;28;20264;-83
2023/06/29 07:06:12;;;;;;;27.97;23.73;;;21.50;31.40;;;;;;5078082;28;20211;-82
2023/06/29 07:08:38;;;;;;;32.07;22.90;;;21.50;30.30;;;;;;5095292;28;20186;-82
2023/06/29 07:11:04;;;;;;;26.90;22.60;;;21.60;30.00;;;;;;5095385;28;20690;-83
2023/06/29 07:13:29;;;;;;;30.73;23.20;;;21.50;30.10;;;;;;5115553;28;20166;-81
2023/06/29 07:15:55;;;;;;;30.17;24.27;;;21.60;27.50;;;;;;5118387;28;20181;-81
2023/06/29 07:18:21;;;;;;;29.73;23.00;;;21.60;27.40;;;;;;5103759;28;20202;-84
2023/06/29 07:20:48;;;;;;;28.73;23.00;;;21.60;26.20;;;;;;5108406;28;20174;-83
2023/06/29 07:23:15;;;;;;;29.83;23.47;;;21.60;27.60;;;;;;5096890;28;20169;-84
2023/06/29 07:26:00;;;;;;;28.23;23.70;;;21.50;29.10;;;;;;5102466;28;20170;-82
2023/06/29 07:28:25;;;;;;;27.23;22.87;;;21.50;30.80;;;;;;5113642;28;20155;-82
2023/06/29 07:30:51;;;;;;;29.77;24.07;;;21.60;30.10;;;;;;5114065;28;20404;-84
2023/06/29 07:33:17;;;;;;;28.57;24.13;;;21.50;29.80;;;;;;5114990;28;20510;-83
2023/06/29 07:35:44;;;;;;;31.17;24.23;;;21.70;28.10;;;;;;5114766;28;20177;-81
2023/06/29 07:38:11;;;;;;;33.23;23.97;;;21.70;28.70;;;;;;5114305;28;20161;-83
2023/06/29 07:40:36;;;;;;;32.83;25.50;;;21.60;32.80;;;;;;5114349;28;20279;-83
2023/06/29 07:43:02;;;;;;;27.47;23.73;;;21.50;33.40;;;;;;5115105;28;20169;-82
2023/06/29 07:45:28;;;;;;;31.70;24.97;;;21.60;32.10;;;;;;5110324;28;20177;-83
2023/06/29 07:47:54;;;;;;;32.67;24.47;;;21.60;30.00;;;;;;5096803;28;20174;-83
2023/06/29 07:50:19;;;;;;;29.90;23.43;;;21.60;29.00;;;;;;5095967;28;20169;-84
2023/06/29 07:52:45;;;;;;;29.83;24.77;;;21.70;26.50;;;;;;5095328;28;20656;-83
2023/06/29 07:55:11;;;;;;;30.90;24.47;;;21.70;24.70;;;;;;5095770;28;20196;-84
2023/06/29 07:57:36;;;;;;;33.07;25.50;;;21.80;25.70;;;;;;5095548;28;20306;-83
2023/06/29 08:00:03;;;;;;;30.10;24.80;;;21.70;24.70;;;;;;5097596;28;20270;-84
2023/06/29 08:02:29;;;;;;;33.70;24.67;;;21.80;23.70;;;;;;5095177;28;20178;-84
2023/06/29 08:04:56;;;;;;;30.97;25.23;;;21.90;24.50;;;;;;5098853;28;20183;-85
2023/06/29 08:07:24;;;;;;;29.10;23.80;;;21.90;21.40;;;;;;5099621;28;20191;-84
2023/06/29 08:09:50;;;;;;;32.33;24.07;;;22.00;23.30;;;;;;5096681;28;20178;-83
2023/06/29 08:12:16;;;;;;;31.70;25.23;;;21.90;25.10;;;;;;5095740;28;20612;-82
2023/06/29 08:14:44;;;;;;;32.77;25.30;;;21.90;25.80;;;;;;5098180;28;20190;-84
2023/06/29 08:17:10;;;;;;;34.57;25.23;;;21.90;24.90;;;;;;5094755;28;20182;-84
2023/06/29 08:19:36;;;;;;;28.50;24.47;;;22.00;21.80;;;;;;5089040;28;20215;-83
2023/06/29 08:22:05;;;;;;;31.77;26.93;;;22.20;17.20;;;;;;5093783;28;20335;-84
2023/06/29 08:24:31;;;;;;;34.00;25.50;;;22.20;11.40;;;;;;5093588;28;20178;-85
2023/06/29 08:26:58;;;;;;;29.33;24.70;;;22.00;14.30;;;;;;5093783;28;20209;-84
2023/06/29 08:29:24;;;;;;;29.53;25.33;;;21.90;24.20;;;;;;5092484;28;20538;-84
2023/06/29 08:31:50;;;;;;;29.40;24.80;;;22.00;22.90;;;;;;5091930;28;20170;-85
2023/06/29 08:34:16;;;;;;;31.20;25.50;;;22.10;21.10;;;;;;5093095;28;20210;-83
2023/06/29 08:36:42;;;;;;;33.80;26.37;;;22.10;19.10;;;;;;5093748;28;20185;-83
2023/06/29 08:39:08;;;;;;;30.40;26.63;;;22.10;19.20;;;;;;5075704;28;20210;-82
2023/06/29 08:41:35;;;;;;;31.33;26.13;;;22.10;14.20;;;;;;5094488;28;20530;-84
2023/06/29 08:44:02;;;;;;;33.30;26.23;;;22.10;16.00;;;;;;5078243;28;20240;-81
2023/06/29 08:46:28;;;;;;;35.23;27.70;;;22.00;15.90;;;;;;5073465;28;20164;-84
2023/06/29 08:48:56;;;;;;;31.13;26.37;;;22.00;15.10;;;;;;5073691;28;20170;-83
2023/06/29 08:51:24;;;;;;;33.00;27.30;;;22.00;17.60;;;;;;5074670;28;20496;-84
2023/06/29 08:53:50;;;;;;;31.90;26.53;;;22.10;12.60;;;;;;5072731;28;20675;-84
2023/06/29 08:56:17;;;;;;;30.27;26.67;;;22.30;10.00;;;;;;5073706;28;20172;-84
2023/06/29 08:58:43;;;;;;;35.13;27.30;;;22.30;6.80;;;;;;5074957;28;20191;-84
2023/06/29 09:01:09;;;;;;;35.80;27.20;;;22.40;1.50;;;;;;5073202;28;20192;-85
2023/06/29 09:03:38;;;;;;;32.97;26.10;;;22.40;5.80;;;;;;5073116;28;20697;-84
2023/06/29 09:06:26;;;;;;;31.80;25.87;;;22.40;4.30;;;;;;5073143;28;20195;-83
2023/06/29 09:08:52;;;;;;;35.33;28.67;;;22.50;2.90;;;;;;5073071;28;20168;-83
2023/06/29 09:11:18;;;;;;;33.80;27.03;;;22.60;1.00;;;;;;5073290;28;20259;-85
2023/06/29 09:13:46;;;;;;;33.70;27.13;;;22.60;1.00;;;;;;5077681;28;20579;-81
2023/06/29 09:16:17;;;;;;;31.97;27.20;;;22.80;1.00;;;;;;5078509;28;20205;-82
2023/06/29 09:18:54;;;;;;;33.63;27.90;;;22.90;1.00;;;;;;5078129;28;20227;-84
2023/06/29 09:21:21;;;;;;;33.27;28.33;;;22.80;1.00;;;;;;5076427;28;20466;-82
2023/06/29 09:23:48;;;;;;;33.53;27.57;;;22.80;1.00;;;;;;5077224;28;20176;-83
2023/06/29 09:26:17;;;;;;;34.53;28.27;;;23.00;1.00;;;;;;5077886;28;20180;-82
2023/06/29 09:28:46;;;;;;;34.20;27.50;;;23.00;1.00;;;;;;5076726;28;20555;-83
2023/06/29 09:31:12;;;;;;;31.67;27.60;;;23.10;1.00;;;;;;5076523;28;20172;-82
2023/06/29 09:33:38;;;;;;;33.13;27.97;;;23.10;1.00;;;;;;5075605;28;20183;-83
2023/06/29 09:36:07;;;;;;;35.13;28.57;;;23.10;1.00;;;;;;5075796;28;20217;-83
2023/06/29 09:38:34;;;;;;;35.17;28.63;;;23.10;1.00;;;;;;5076253;28;20688;-85
2023/06/29 09:41:00;;;;;;;33.87;28.43;;;23.10;1.00;;;;;;5077536;28;20179;-84
2023/06/29 09:43:28;;;;;;;35.07;28.17;;;23.10;1.00;;;;;;5076177;28;20177;-85
2023/06/29 09:46:07;;;;;;;39.87;28.70;;;23.10;1.00;;;;;;5076546;28;20183;-84
2023/06/29 09:48:33;;;;;;;32.33;26.97;;;23.20;1.00;;;;;;5076846;28;20314;-83
2023/06/29 09:50:58;;;;;;;33.37;27.87;;;23.30;1.00;;;;;;5075531;28;20209;-83
2023/06/29 09:53:31;;;;;;;34.27;28.67;;;23.40;1.00;;;;;;5075609;28;20192;-82
2023/06/29 09:55:58;;;;;;;32.73;28.00;;;23.60;1.00;;;;;;5076907;28;20707;-84
2023/06/29 09:58:26;;;;;;;33.80;28.43;;;23.40;1.00;;;;;;5075564;28;20203;-83
2023/06/29 10:00:52;;;;;;;33.10;28.47;;;23.40;1.00;;;;;;5076634;28;20180;-83
2023/06/29 10:03:18;;;;;;;36.57;29.73;;;23.50;1.00;;;;;;5042178;28;20226;-84
2023/06/29 10:05:45;;;;;;;33.53;27.33;;;23.50;1.00;;;;;;5075762;28;20554;-85
2023/06/29 10:08:16;;;;;;;33.50;28.20;;;23.40;1.00;;;;;;5075916;28;20187;-83
2023/06/29 10:10:43;;;;;;;34.97;28.03;;;23.50;1.00;;;;;;5083284;28;20224;-82
2023/06/29 10:13:10;;;;;;;36.03;27.80;;;23.50;1.00;;;;;;5099033;28;20191;-83
2023/06/29 10:15:37;;;;;;;34.63;28.77;;;23.60;1.00;;;;;;5090603;28;20172;-83
2023/06/29 10:18:10;;;;;;;31.70;27.63;;;23.60;1.00;;;;;;5080632;28;20271;-83
2023/06/29 10:20:40;;;;;;;33.37;27.73;;;23.60;1.00;;;;;;5076074;28;20204;-83
2023/06/29 10:23:09;;;;;;;35.77;28.07;;;23.70;1.00;;;;;;5076398;28;20198;-84
2023/06/29 10:25:40;;;;;;;33.33;28.63;;;23.70;1.00;;;;;;5075573;28;20168;-83
2023/06/29 10:28:07;;;;;;;36.87;28.70;;;23.90;1.00;;;;;;5077630;28;20181;-83
2023/06/29 10:30:46;;;;;;;34.93;27.93;;;24.00;1.00;;;;;;5076639;28;20223;-85
2023/06/29 10:33:12;;;;;;;35.63;29.13;;;24.10;1.00;;;;;;5076152;28;20267;-85
2023/06/29 10:35:39;;;;;;;35.30;28.60;;;24.10;1.00;;;;;;5099082;28;20168;-82
2023/06/29 10:38:13;;;;;;;36.00;29.17;;;24.20;1.00;;;;;;5096050;28;20172;-83
2023/06/29 10:40:49;;;;;;;39.27;30.07;;;24.40;1.00;;;;;;5091053;28;20176;-83
2023/06/29 10:43:17;;;;;;;34.17;28.27;;;24.30;1.00;;;;;;5083797;28;20592;-81
2023/06/29 10:45:44;;;;;;;36.17;29.73;;;24.20;1.00;;;;;;5076153;28;20184;-83
2023/06/29 10:48:16;;;;;;;33.87;28.27;;;24.30;1.00;;;;;;5060663;28;20169;-83
2023/06/29 10:50:47;;;;;;;32.30;26.60;;;24.20;1.00;;;;;;5075087;28;20251;-84
2023/06/29 10:53:16;;;;;;;35.80;29.60;;;24.30;1.00;;;;;;5058883;28;20207;-84
2023/06/29 10:55:45;;;;;;;37.77;29.13;;;24.40;1.00;;;;;;5074658;28;20532;-84
2023/06/29 10:58:35;;;;;;;34.97;29.30;;;24.50;1.00;;;;;;5075080;28;20171;-83
2023/06/29 11:01:01;;;;;;;35.90;31.03;;;24.50;1.00;;;;;;5075869;28;20194;-84
2023/06/29 11:03:27;;;;;;;35.30;30.50;;;24.50;1.00;;;;;;5076321;28;20180;-83
2023/06/29 11:05:55;;;;;;;37.37;30.37;;;24.50;1.00;;;;;;5075377;28;20178;-82
2023/06/29 11:08:23;;;;;;;36.33;30.20;;;24.50;1.00;;;;;;5078990;28;20195;-83
2023/06/29 11:10:50;;;;;;;35.17;30.00;;;24.50;1.00;;;;;;5080025;28;20612;-83
2023/06/29 11:13:18;;;;;;;39.27;31.40;;;24.80;1.00;;;;;;5085283;28;20166;-83
2023/06/29 11:15:51;;;;;;;36.63;31.00;;;25.00;1.00;;;;;;5091371;28;20184;-83
2023/06/29 11:18:16;;;;;;;39.17;31.50;;;24.90;1.00;;;;;;5087712;28;20172;-84
2023/06/29 11:20:42;;;;;;;38.80;32.03;;;24.60;1.00;;;;;;5080714;28;20187;-83
2023/06/29 11:23:08;;;;;;;41.30;31.80;;;24.60;1.00;;;;;;5074889;28;20223;-82
2023/06/29 11:25:36;;;;;;;36.50;30.73;;;24.80;1.00;;;;;;5075985;28;20176;-82
2023/06/29 11:28:02;;;;;;;37.00;31.00;;;25.00;1.00;;;;;;5077376;28;20200;-83
2023/06/29 11:30:28;;;;;;;37.93;30.93;;;25.00;1.00;;;;;;5075681;28;20616;-85
2023/06/29 11:32:57;;;;;;;42.40;33.07;;;25.00;1.00;;;;;;5074027;28;20176;-83
2023/06/29 11:35:23;;;;;;;37.57;32.90;;;25.10;1.00;;;;;;5074775;28;20263;-84
2023/06/29 11:37:50;;;;;;;41.80;32.70;;;25.10;1.00;;;;;;5075062;28;20230;-83
2023/06/29 11:40:21;;;;;;;38.80;32.93;;;25.00;1.00;;;;;;5074556;28;20236;-82
2023/06/29 11:42:49;;;;;;;35.60;30.53;;;25.20;1.00;;;;;;5074565;28;20263;-83
2023/06/29 11:45:17;;;;;;;39.83;33.70;;;25.20;1.00;;;;;;5074096;28;20180;-84
2023/06/29 11:47:51;;;;;;;37.40;31.43;;;25.30;1.00;;;;;;5074151;28;20651;-84
2023/06/29 11:50:17;;;;;;;39.90;33.67;;;25.40;1.00;;;;;;5074474;28;20263;-82
2023/06/29 11:52:44;;;;;;;41.37;33.70;;;25.20;1.00;;;;;;5072679;28;20196;-84
2023/06/29 11:55:15;;;;;;;41.30;33.40;;;25.20;1.00;;;;;;5073619;28;20172;-82
2023/06/29 11:57:43;;;;;;;39.37;33.40;;;25.20;1.00;;;;;;5074803;28;20176;-83
2023/06/29 12:00:15;;;;;;;40.37;32.97;;;25.20;1.00;;;;;;5074583;28;20237;-83
2023/06/29 12:02:41;;;;;;;39.47;32.30;;;25.30;1.00;;;;;;5075853;28;20178;-82
2023/06/29 12:05:08;;;;;;;39.20;31.67;;;25.30;1.00;;;;;;5076756;28;20917;-82
2023/06/29 12:07:44;;;;;;;41.30;33.97;;;25.40;1.00;;;;;;5082180;28;20172;-83
2023/06/29 12:10:12;;;;;;;37.87;32.00;;;25.40;1.00;;;;;;5087167;28;20234;-83
2023/06/29 12:12:48;;;;;;;39.20;31.90;;;25.60;1.00;;;;;;5086599;28;20232;-82
2023/06/29 12:15:20;;;;;;;41.23;33.60;;;25.70;1.00;;;;;;5092330;28;20175;-82
2023/06/29 12:17:49;;;;;;;37.37;32.40;;;25.80;1.00;;;;;;5088613;28;20180;-84
2023/06/29 12:20:18;;;;;;;42.10;33.37;;;25.80;1.00;;;;;;5086563;28;20200;-83
2023/06/29 12:22:47;;;;;;;39.47;34.07;;;25.70;1.00;;;;;;5080771;28;20184;-83
2023/06/29 12:25:15;;;;;;;39.13;33.47;;;25.50;1.00;;;;;;5075895;28;20190;-82
2023/06/29 12:27:44;;;;;;;40.00;33.40;;;25.20;1.00;;;;;;5075385;28;20216;-83
2023/06/29 12:30:15;;;;;;;41.27;33.23;;;25.20;1.00;;;;;;5094272;28;20164;-81